Time;durP1;ratioP1;P1;durP2;ratioP2;P2;SDS_P1;SDS_P2;PMS_P1;PMS_P2;Temp;Humidity;BMP_temperature;BMP_pressure;BME280_temperature;BME280_humidity;BME280_pressure;Samples;Min_cycle;Max_cycle;Signal;HPM_P1;HPM_P2
2022/08/14 00:00:22;;;;;;;4.60;4.20;;;;;;;15.75;100.00;96067.00;5070217;27;102010;-61
2022/08/14 00:02:49;;;;;;;5.00;4.60;;;;;;;15.68;100.00;96058.53;5070417;27;103711;-61
2022/08/14 00:05:21;;;;;;;4.63;4.33;;;;;;;15.67;100.00;96058.81;5069654;27;106568;-61
2022/08/14 00:07:50;;;;;;;5.00;4.50;;;;;;;15.74;100.00;96065.41;5070153;27;102135;-61
2022/08/14 00:10:20;;;;;;;5.33;4.83;;;;;;;15.46;100.00;96065.53;5070179;27;105133;-61
2022/08/14 00:12:50;;;;;;;5.30;4.90;;;;;;;15.59;100.00;96062.94;5074071;27;101846;-61
2022/08/14 00:15:22;;;;;;;5.30;4.80;;;;;;;15.55;100.00;96064.63;5070087;27;105453;-61
2022/08/14 00:17:51;;;;;;;5.10;4.60;;;;;;;15.48;100.00;96058.03;5071264;27;102793;-61
2022/08/14 00:20:19;;;;;;;4.70;4.30;;;;;;;15.40;100.00;96055.97;5070122;27;101919;-61
2022/08/14 00:22:47;;;;;;;4.57;4.20;;;;;;;15.28;100.00;96056.38;5069502;27;105637;-61
2022/08/14 00:25:16;;;;;;;4.70;4.30;;;;;;;15.29;100.00;96051.81;5070829;27;102694;-61
2022/08/14 00:27:43;;;;;;;5.83;4.30;;;;;;;15.29;100.00;96043.78;5071567;27;101982;-61
2022/08/14 00:30:12;;;;;;;5.07;4.67;;;;;;;15.28;100.00;96040.31;5071431;27;102755;-61
2022/08/14 00:32:40;;;;;;;5.10;4.70;;;;;;;15.21;100.00;96033.72;5073830;27;102886;-61
2022/08/14 00:35:09;;;;;;;5.20;4.70;;;;;;;15.02;100.00;96020.28;5071501;27;102413;-61
2022/08/14 00:37:39;;;;;;;4.97;4.57;;;;;;;14.98;100.00;96027.28;5070493;27;102643;-61
2022/08/14 00:40:09;;;;;;;4.90;4.50;;;;;;;14.85;100.00;96022.63;5069469;27;101948;-61
2022/08/14 00:42:38;;;;;;;5.10;4.60;;;;;;;14.73;100.00;96026.78;5071078;27;102437;-61
2022/08/14 00:45:06;;;;;;;4.60;4.20;;;;;;;14.57;100.00;96018.16;5070390;27;102536;-61
2022/08/14 00:47:34;;;;;;;5.23;4.83;;;;;;;14.66;100.00;96023.66;5069830;27;101947;-61
2022/08/14 00:50:03;;;;;;;6.43;5.50;;;;;;;14.76;100.00;96023.53;5071040;27;102553;-61
2022/08/14 00:52:30;;;;;;;5.60;5.13;;;;;;;14.85;100.00;96021.81;5070283;27;103037;-61
2022/08/14 00:54:58;;;;;;;5.60;5.10;;;;;;;14.92;100.00;96028.44;5074602;27;101858;-61
2022/08/14 00:57:29;;;;;;;5.17;4.67;;;;;;;14.65;100.00;96022.84;5068882;27;104764;-61
2022/08/14 00:59:59;;;;;;;6.10;5.40;;;;;;;14.66;100.00;96026.34;5069334;27;101838;-61
2022/08/14 01:02:27;;;;;;;5.20;4.80;;;;;;;14.75;100.00;96017.41;5070780;27;102305;-61
2022/08/14 01:04:57;;;;;;;5.20;4.70;;;;;;;14.63;100.00;96014.31;5070130;27;102590;-61
2022/08/14 01:07:28;;;;;;;5.13;4.73;;;;;;;14.58;100.00;96013.56;5070968;27;101706;-61
2022/08/14 01:09:57;;;;;;;4.90;4.50;;;;;;;14.35;100.00;96009.81;5071107;27;102322;-61
2022/08/14 01:12:25;;;;;;;5.47;5.07;;;;;;;14.22;100.00;96007.00;5068597;27;104488;-61
2022/08/14 01:14:54;;;;;;;5.83;5.23;;;;;;;14.14;100.00;96011.03;5070671;27;101840;-61
2022/08/14 01:17:23;;;;;;;6.80;5.03;;;;;;;14.31;100.00;96005.28;5072302;27;105533;-61
2022/08/14 01:22:37;;;;;;;5.73;5.17;;;;;;;14.28;100.00;95995.16;5070675;27;102223;-61
2022/08/14 01:25:06;;;;;;;6.13;5.37;;;;;;;14.21;100.00;96005.38;5069847;27;102692;-61
2022/08/14 01:27:34;;;;;;;5.30;4.90;;;;;;;14.17;100.00;96007.00;5070749;27;101714;-61
2022/08/14 01:30:02;;;;;;;5.43;5.03;;;;;;;14.25;100.00;96006.41;5070529;27;102279;-61
2022/08/14 01:32:29;;;;;;;6.07;5.60;;;;;;;14.37;100.00;96004.97;5068662;27;103731;-61
2022/08/14 01:34:56;;;;;;;5.77;5.30;;;;;;;14.41;100.00;96006.00;5070487;27;102046;-61
2022/08/14 01:37:23;;;;;;;5.90;5.40;;;;;;;14.39;100.00;95997.44;5069055;27;104024;-61
2022/08/14 01:39:53;;;;;;;5.70;5.20;;;;;;;14.35;100.00;96000.97;5072679;27;102754;-61
2022/08/14 01:42:20;;;;;;;5.60;5.10;;;;;;;14.50;100.00;95998.94;5070250;27;102344;-61
2022/08/14 01:44:49;;;;;;;5.80;5.30;;;;;;;14.52;100.00;95995.97;5069808;27;102797;-61
2022/08/14 01:47:17;;;;;;;6.03;5.00;;;;;;;14.51;100.00;95997.06;5068650;27;101990;-61
2022/08/14 01:49:44;;;;;;;5.53;5.10;;;;;;;14.42;100.00;96001.44;5070389;27;102318;-61
2022/08/14 01:52:12;;;;;;;6.17;5.37;;;;;;;14.14;100.00;96000.34;5070239;27;105806;-61
2022/08/14 01:54:39;;;;;;;5.80;5.27;;;;;;;14.25;100.00;95991.19;5072545;27;102057;-61
2022/08/14 01:57:10;;;;;;;5.40;4.97;;;;;;;14.25;100.00;95991.19;5074101;27;102507;-61
2022/08/14 01:59:42;;;;;;;5.47;5.07;;;;;;;14.19;100.00;95978.94;5073189;27;102826;-61
2022/08/14 02:02:13;;;;;;;5.40;5.00;;;;;;;13.83;100.00;95977.63;5077244;27;102039;-61
2022/08/14 02:04:41;;;;;;;5.47;5.07;;;;;;;13.76;100.00;95977.16;5073224;27;102521;-61
2022/08/14 02:07:10;;;;;;;5.50;4.83;;;;;;;13.85;100.00;95970.13;5072425;27;101797;-61
2022/08/14 02:09:38;;;;;;;5.97;5.47;;;;;;;13.83;100.00;95966.13;5073573;27;102371;-61
2022/08/14 02:12:07;;;;;;;5.50;5.00;;;;;;;13.93;100.00;95958.03;5072550;27;102847;-61
2022/08/14 02:14:36;;;;;;;5.63;5.20;;;;;;;13.99;100.00;95949.69;5073482;27;101939;-61
2022/08/14 02:17:08;;;;;;;5.53;5.03;;;;;;;13.85;100.00;95947.94;5072149;27;105800;-61
2022/08/14 02:19:36;;;;;;;5.40;5.00;;;;;;;13.71;100.00;95945.13;5072813;27;102582;-61
2022/08/14 02:22:03;;;;;;;6.63;5.00;;;;;;;13.51;100.00;95947.19;5075484;27;102037;-61
2022/08/14 02:24:31;;;;;;;5.50;5.00;;;;;;;13.44;100.00;95936.00;5071405;27;104895;-61
2022/08/14 02:27:00;;;;;;;5.63;5.13;;;;;;;13.49;100.00;95941.28;5071233;27;101911;-61
2022/08/14 02:29:29;;;;;;;5.87;5.37;;;;;;;13.53;100.00;95937.78;5073506;27;102513;-61
2022/08/14 02:32:01;;;;;;;5.67;5.20;;;;;;;13.45;100.00;95933.03;5072438;27;102666;-61
2022/08/14 02:34:30;;;;;;;5.53;5.13;;;;;;;13.34;100.00;95936.06;5073411;27;101864;-61
2022/08/14 02:37:01;;;;;;;6.53;5.70;;;;;;;13.25;100.00;95940.41;5072974;27;102788;-61
2022/08/14 02:39:30;;;;;;;5.90;5.40;;;;;;;13.49;100.00;95941.28;5071933;27;103017;-62
2022/08/14 02:41:57;;;;;;;5.60;5.10;;;;;;;13.56;100.00;95941.78;5071497;27;102536;-61
2022/08/14 02:44:26;;;;;;;6.17;5.57;;;;;;;13.67;100.00;95933.41;5076001;27;102683;-61
2022/08/14 02:46:56;;;;;;;6.33;5.70;;;;;;;13.81;100.00;95941.56;5073313;27;101841;-61
2022/08/14 02:49:27;;;;;;;5.37;4.87;;;;;;;13.83;100.00;95934.06;5073257;27;102446;-61
2022/08/14 02:51:57;;;;;;;5.73;5.23;;;;;;;13.69;100.00;95933.13;5072302;27;102735;-61
2022/08/14 02:54:25;;;;;;;5.40;4.90;;;;;;;13.79;100.00;95920.47;5071152;27;101963;-61
2022/08/14 02:56:53;;;;;;;5.43;4.90;;;;;;;13.65;100.00;95916.88;5073084;27;102402;-61
2022/08/14 02:59:21;;;;;;;8.27;5.13;;;;;;;13.33;100.00;95923.78;5072348;27;103130;-61
2022/08/14 03:01:48;;;;;;;5.93;5.03;;;;;;;13.07;100.00;95915.16;5071435;27;101951;-61
2022/08/14 03:04:18;;;;;;;5.70;5.20;;;;;;;13.25;100.00;95921.72;5070161;27;105053;-61
2022/08/14 03:06:47;;;;;;;6.00;5.40;;;;;;;13.23;100.00;95923.84;5075756;27;103160;-61
2022/08/14 03:09:14;;;;;;;6.43;5.50;;;;;;;13.10;100.00;95919.16;5071328;27;105612;-61
2022/08/14 03:11:43;;;;;;;5.73;5.10;;;;;;;13.15;100.00;95921.78;5071932;27;102621;-61
2022/08/14 03:14:10;;;;;;;5.77;5.20;;;;;;;13.23;100.00;95926.53;5071035;27;101961;-61
2022/08/14 03:16:39;;;;;;;5.67;5.17;;;;;;;13.16;100.00;95931.38;5072716;27;102450;-61
2022/08/14 03:19:08;;;;;;;5.83;5.43;;;;;;;13.31;100.00;95916.06;5070566;27;105760;-61
2022/08/14 03:21:38;;;;;;;5.57;5.07;;;;;;;13.34;100.00;95912.84;5070980;27;101935;-61
2022/08/14 03:24:10;;;;;;;5.60;5.17;;;;;;;13.28;100.00;95903.28;5072464;27;102845;-61
2022/08/14 03:26:39;;;;;;;5.80;5.30;;;;;;;13.35;100.00;95906.41;5072021;27;102716;-61
2022/08/14 03:29:07;;;;;;;5.83;5.23;;;;;;;13.37;100.00;95903.47;5075529;27;101825;-61
2022/08/14 03:31:37;;;;;;;5.80;5.30;;;;;;;13.36;100.00;95896.53;5071705;27;102769;-61
2022/08/14 03:34:04;;;;;;;5.50;5.10;;;;;;;13.29;100.00;95901.38;5072126;27;101871;-61
2022/08/14 03:36:32;;;;;;;5.13;4.73;;;;;;;13.28;100.00;95902.47;5072354;27;102276;-61
2022/08/14 03:39:00;;;;;;;5.33;4.83;;;;;;;13.31;100.00;95901.91;5071353;27;103097;-61
2022/08/14 03:41:30;;;;;;;6.00;5.50;;;;;;;13.44;100.00;95894.06;5070515;27;101973;-61
2022/08/14 03:43:58;;;;;;;5.90;5.40;;;;;;;13.27;100.00;95906.22;5070409;27;103956;-61
2022/08/14 03:46:27;;;;;;;5.57;5.07;;;;;;;13.27;100.00;95907.03;5070299;27;103974;-61
2022/08/14 03:48:54;;;;;;;5.23;4.73;;;;;;;13.17;100.00;95904.41;5071938;27;101848;-61
2022/08/14 03:51:27;;;;;;;5.33;4.77;;;;;;;12.97;100.00;95915.22;5074613;27;102530;-61
2022/08/14 03:53:56;;;;;;;6.63;5.37;;;;;;;12.94;100.00;95909.63;5072046;27;101864;-61
2022/08/14 03:56:24;;;;;;;4.97;4.60;;;;;;;13.10;100.00;95897.78;5071616;27;103945;-61
2022/08/14 03:59:01;;;;;;;5.43;4.93;;;;;;;13.09;100.00;95898.88;5069658;27;107043;-61
2022/08/14 04:01:28;;;;;;;5.57;5.13;;;;;;;13.09;100.00;95893.53;5072141;27;101796;-61
2022/08/14 04:04:01;;;;;;;5.47;4.90;;;;;;;13.11;100.00;95894.03;5070353;27;103589;-61
2022/08/14 04:06:28;;;;;;;5.87;5.27;;;;;;;13.13;100.00;95898.03;5071169;27;102636;-61
2022/08/14 04:08:55;;;;;;;5.30;4.90;;;;;;;13.12;100.00;95893.78;5071562;27;102363;-61
2022/08/14 04:11:23;;;;;;;5.10;4.73;;;;;;;13.16;100.00;95886.81;5070380;27;103594;-61
2022/08/14 04:13:53;;;;;;;5.67;5.27;;;;;;;13.07;100.00;95887.66;5074165;27;102666;-61
2022/08/14 04:16:21;;;;;;;6.03;5.50;;;;;;;13.09;100.00;95885.53;5071567;27;102538;-61
2022/08/14 04:18:51;;;;;;;5.07;4.70;;;;;;;12.91;100.00;95878.94;5070851;27;102645;-61
2022/08/14 04:21:21;;;;;;;5.53;5.03;;;;;;;12.87;100.00;95883.22;5071268;27;101824;-61
2022/08/14 04:23:48;;;;;;;5.50;5.03;;;;;;;12.88;100.00;95879.50;5070094;27;104843;-61
2022/08/14 04:26:17;;;;;;;5.50;5.10;;;;;;;12.75;100.00;95880.09;5069419;27;103914;-61
2022/08/14 04:28:45;;;;;;;6.13;5.63;;;;;;;12.67;100.00;95877.22;5052798;27;101995;-61
2022/08/14 04:31:14;;;;;;;6.20;5.60;;;;;;;12.69;100.00;95880.41;5070011;27;103814;-61
2022/08/14 04:33:42;;;;;;;5.30;4.90;;;;;;;12.70;100.00;95888.13;5072725;27;105666;-61
2022/08/14 04:36:10;;;;;;;5.90;5.33;;;;;;;12.74;100.00;95878.50;5069689;27;105569;-61
2022/08/14 04:44:06;;;;;;;5.70;5.30;;;;;;;13.03;100.00;95887.41;5072052;27;102146;-61
2022/08/14 04:46:35;;;;;;;6.80;6.10;;;;;;;13.12;100.00;95890.28;5069249;27;105875;-61
2022/08/14 04:49:02;;;;;;;7.53;6.83;;;;;;;13.20;100.00;95892.38;5069587;27;101909;-61
2022/08/14 04:51:31;;;;;;;7.53;6.93;;;;;;;13.26;100.00;95899.28;5069184;27;105504;-61
2022/08/14 04:53:59;;;;;;;6.73;6.23;;;;;;;13.34;100.00;95893.34;5069110;27;105518;-61
2022/08/14 04:56:27;;;;;;;7.17;6.53;;;;;;;13.49;100.00;95887.88;5073473;27;102277;-61
2022/08/14 04:59:04;;;;;;;7.17;6.57;;;;;;;13.63;100.00;95875.47;5068952;27;105853;-61
2022/08/14 05:01:31;;;;;;;6.93;6.30;;;;;;;13.66;100.00;95875.69;5071246;27;101719;-61
2022/08/14 05:04:00;;;;;;;6.67;6.07;;;;;;;13.78;100.00;95877.97;5070638;27;102510;-61
2022/08/14 05:06:28;;;;;;;6.30;5.80;;;;;;;13.96;100.00;95869.25;5070313;27;103326;-61
2022/08/14 05:08:55;;;;;;;7.70;7.00;;;;;;;14.10;100.00;95860.28;5070950;27;101871;-61
2022/08/14 05:11:21;;;;;;;7.43;6.67;;;;;;;14.22;100.00;95862.59;5070837;27;102376;-61
2022/08/14 05:13:49;;;;;;;7.50;6.73;;;;;;;14.31;100.00;95863.53;5068787;27;105946;-61
2022/08/14 05:16:17;;;;;;;7.10;6.40;;;;;;;14.46;100.00;95858.81;5070349;27;101780;-61
2022/08/14 05:18:45;;;;;;;6.57;6.07;;;;;;;14.60;100.00;95854.31;5073581;27;102574;-61
2022/08/14 05:21:14;;;;;;;6.40;5.90;;;;;;;14.74;100.00;95849.06;5070674;27;102003;-61
2022/08/14 05:23:42;;;;;;;6.53;5.93;;;;;;;14.89;100.00;95838.91;5069189;27;105688;-61
2022/08/14 05:26:16;;;;;;;6.60;6.10;;;;;;;15.02;100.00;95840.88;5070588;27;103054;-61
2022/08/14 05:28:45;;;;;;;6.63;6.13;;;;;;;15.05;100.00;95839.50;5072978;27;102167;-61
2022/08/14 05:31:13;;;;;;;6.83;6.20;;;;;;;15.12;100.00;95845.28;5073867;27;102366;-61
2022/08/14 05:33:41;;;;;;;6.70;6.20;;;;;;;15.18;100.00;95836.88;5073553;27;102761;-61
2022/08/14 05:36:11;;;;;;;6.80;6.30;;;;;;;15.44;100.00;95838.09;5074324;27;101832;-61
2022/08/14 05:38:43;;;;;;;6.23;5.73;;;;;;;15.65;100.00;95843.88;5073926;27;102468;-61
2022/08/14 05:41:12;;;;;;;6.60;6.00;;;;;;;15.70;100.00;95841.91;5075118;27;105437;-61
2022/08/14 05:43:40;;;;;;;6.43;6.03;;;;;;;15.89;100.00;95845.31;5074040;27;102298;-61
2022/08/14 05:46:09;;;;;;;6.67;6.17;;;;;;;16.08;100.00;95834.50;5073146;27;102606;-61
2022/08/14 05:48:37;;;;;;;6.60;6.10;;;;;;;16.24;100.00;95830.44;5072405;27;102368;-61
2022/08/14 05:51:04;;;;;;;6.60;6.10;;;;;;;16.25;100.00;95834.72;5072373;27;105183;-61
2022/08/14 05:53:31;;;;;;;6.90;6.40;;;;;;;16.36;100.00;95833.41;5071852;27;105048;-61
2022/08/14 05:56:00;;;;;;;7.43;5.80;;;;;;;16.57;100.00;95832.69;5074019;27;101836;-61
2022/08/14 05:58:27;;;;;;;5.70;5.20;;;;;;;16.71;100.00;95819.25;5073610;27;102853;-61
2022/08/14 06:00:55;;;;;;;6.60;5.73;;;;;;;16.79;100.00;95827.38;5073280;27;102585;-61
2022/08/14 06:03:23;;;;;;;5.87;5.47;;;;;;;17.01;100.00;95823.94;5077180;27;102116;-61
2022/08/14 06:05:52;;;;;;;6.10;5.60;;;;;;;17.08;100.00;95829.69;5073145;27;102795;-61
2022/08/14 06:08:21;;;;;;;5.90;5.40;;;;;;;17.25;100.00;95827.94;5073385;27;101799;-61
2022/08/14 06:10:49;;;;;;;6.93;5.30;;;;;;;17.40;100.00;95832.97;5073727;27;102884;-61
2022/08/14 06:13:18;;;;;;;5.97;5.43;;;;;;;17.48;100.00;95834.09;5071496;27;105553;-61
2022/08/14 06:15:45;;;;;;;6.10;5.60;;;;;;;17.35;100.00;95834.94;5073775;27;101731;-61
2022/08/14 06:18:13;;;;;;;6.00;5.50;;;;;;;17.23;100.00;95832.03;5073425;27;102396;-61
2022/08/14 06:20:40;;;;;;;7.17;4.90;;;;;;;17.51;100.00;95834.31;5072867;27;102496;-61
2022/08/14 06:23:07;;;;;;;6.50;5.40;;;;;;;17.75;100.00;95831.25;5073397;27;102011;-61
2022/08/14 06:25:34;;;;;;;6.37;4.73;;;;;;;17.71;100.00;95828.41;5076418;27;102509;-61
2022/08/14 06:28:02;;;;;;;7.40;4.77;;;;;;;17.62;100.00;95830.25;5073434;27;102062;-61
2022/08/14 06:30:32;;;;;;;5.67;5.17;;;;;;;17.79;100.00;95843.00;5073333;27;102793;-61
2022/08/14 06:32:59;;;;;;;4.80;4.40;;;;;;;17.99;100.00;95834.41;5072817;27;102588;-61
2022/08/14 06:35:27;;;;;;;6.03;5.53;;;;;;;17.57;100.00;95830.38;5071659;27;101997;-61
2022/08/14 06:37:57;;;;;;;6.20;5.23;;;;;;;17.88;100.00;95825.78;5071942;27;102990;-61
2022/08/14 06:40:26;;;;;;;5.83;5.17;;;;;;;18.18;100.00;95832.25;5071723;27;102685;-61
2022/08/14 06:42:54;;;;;;;4.77;4.47;;;;;;;18.44;100.00;95830.47;5073031;27;101712;-61
2022/08/14 06:45:21;;;;;;;7.03;4.13;;;;;;;18.71;100.00;95830.22;5074256;27;105731;-61
2022/08/14 06:47:50;;;;;;;4.30;4.00;;;;;;;18.92;100.00;95831.19;5072725;27;101851;-61
2022/08/14 06:50:20;;;;;;;4.40;4.00;;;;;;;18.86;100.00;95829.78;5072902;27;101691;-61
2022/08/14 06:52:48;;;;;;;4.23;3.83;;;;;;;18.93;100.00;95835.47;5072154;27;102982;-61
2022/08/14 06:55:18;;;;;;;4.67;4.13;;;;;;;18.79;100.00;95835.63;5072935;27;102140;-61
2022/08/14 06:57:47;;;;;;;4.30;4.00;;;;;;;18.97;100.00;95837.22;5054586;27;105264;-61
2022/08/14 07:00:16;;;;;;;3.90;3.60;;;;;;;19.39;100.00;95841.03;5070598;27;106069;-61
2022/08/14 07:05:46;;;;;;;3.80;3.50;;;;;;;19.68;100.00;95828.47;5072986;27;102755;-61
2022/08/14 07:08:14;;;;;;;4.20;3.90;;;;;;;19.57;100.00;95837.22;5074047;27;105576;-61
2022/08/14 07:10:43;;;;;;;3.53;3.33;;;;;;;19.57;100.00;95834.53;5072620;27;102416;-61
2022/08/14 07:13:10;;;;;;;3.60;3.40;;;;;;;20.03;100.00;95834.56;5071827;27;102759;-61
2022/08/14 07:15:37;;;;;;;3.47;3.27;;;;;;;19.88;100.00;95825.09;5072701;27;101732;-61
2022/08/14 07:18:05;;;;;;;3.90;3.60;;;;;;;19.99;100.00;95825.56;5072426;27;102306;-61
2022/08/14 07:20:34;;;;;;;4.30;3.67;;;;;;;20.27;100.00;95824.03;5070442;27;105759;-61
2022/08/14 07:23:02;;;;;;;3.80;3.53;;;;;;;20.59;100.00;95818.00;5072312;27;101885;-61
2022/08/14 07:25:29;;;;;;;4.67;3.70;;;;;;;20.41;100.00;95811.88;5072449;27;103577;-62
2022/08/14 07:27:56;;;;;;;4.40;3.57;;;;;;;20.60;100.00;95814.94;5071791;27;102821;-62
2022/08/14 07:30:24;;;;;;;3.63;3.33;;;;;;;20.89;100.00;95814.97;5074242;27;101919;-62
2022/08/14 07:32:51;;;;;;;5.03;3.50;;;;;;;21.07;100.00;95821.00;5070152;27;105723;-62
2022/08/14 07:35:19;;;;;;;3.70;3.40;;;;;;;20.84;100.00;95819.72;5071010;27;101850;-62
2022/08/14 07:37:49;;;;;;;3.50;3.30;;;;;;;20.83;100.00;95820.84;5070841;27;105731;-62
2022/08/14 07:40:16;;;;;;;3.70;3.40;;;;;;;20.80;100.00;95816.88;5071203;27;102770;-62
2022/08/14 07:42:44;;;;;;;4.33;3.13;;;;;;;21.44;100.00;95803.84;5072043;27;101999;-62
2022/08/14 07:45:12;;;;;;;3.60;3.30;;;;;;;21.82;100.00;95793.59;5071993;27;102404;-62
2022/08/14 07:47:42;;;;;;;3.20;2.90;;;;;;;21.97;100.00;95787.53;5070024;27;105770;-62
2022/08/14 07:50:14;;;;;;;3.30;3.10;;;;;;;22.19;100.00;95789.81;5071659;27;101947;-62
2022/08/14 07:52:42;;;;;;;3.20;3.00;;;;;;;22.44;100.00;95778.69;5073178;27;105544;-62
2022/08/14 07:55:13;;;;;;;4.07;3.10;;;;;;;22.58;100.00;95779.13;5071940;27;101877;-62
2022/08/14 07:57:41;;;;;;;4.03;2.80;;;;;;;22.67;100.00;95776.28;5070501;27;105512;-62
2022/08/14 08:00:11;;;;;;;2.90;2.70;;;;;;;23.02;100.00;95777.34;5070954;27;104205;-62
2022/08/14 08:02:40;;;;;;;2.87;2.70;;;;;;;23.24;100.00;95771.41;5068686;27;101873;-62
2022/08/14 08:05:09;;;;;;;2.60;2.40;;;;;;;23.57;100.00;95764.59;5071739;27;102479;-62
2022/08/14 08:07:38;;;;;;;3.13;2.60;;;;;;;23.78;100.00;95764.34;5069621;27;105254;-62
2022/08/14 08:12:52;;;;;;;2.80;2.60;;;;;;;24.32;100.00;95765.38;5069091;27;105251;-62
2022/08/14 08:15:20;;;;;;;2.57;2.37;;;;;;;24.39;93.69;95770.97;5074412;27;102647;-62
2022/08/14 08:17:48;;;;;;;2.50;2.30;;;;;;;24.48;92.79;95760.69;5070152;27;106300;-62
2022/08/14 08:20:18;;;;;;;2.23;2.10;;;;;;;24.44;93.20;95757.91;5070717;27;102655;-62
2022/08/14 08:22:46;;;;;;;2.70;2.00;;;;;;;24.80;74.35;95759.53;5070075;27;101889;-62
2022/08/14 08:25:13;;;;;;;1.93;1.83;;;;;;;24.75;72.27;95762.53;5071473;27;102898;-62
2022/08/14 08:27:40;;;;;;;2.00;1.90;;;;;;;25.02;66.70;95761.56;5069102;27;103876;-62
2022/08/14 08:30:10;;;;;;;2.33;2.13;;;;;;;25.21;62.89;95756.09;5071434;27;102202;-62
2022/08/14 08:32:44;;;;;;;2.30;2.10;;;;;;;25.44;68.79;95757.00;5071503;27;102899;-62
2022/08/14 08:35:19;;;;;;;2.27;2.17;;;;;;;25.43;76.80;95758.13;5070713;27;102859;-62
2022/08/14 08:37:47;;;;;;;3.13;2.30;;;;;;;25.67;73.71;95755.88;5074854;27;101671;-62
2022/08/14 08:40:23;;;;;;;2.13;1.97;;;;;;;25.75;69.05;95756.81;5069934;27;102582;-62
2022/08/14 08:42:50;;;;;;;2.57;2.43;;;;;;;25.73;67.48;95756.38;5071397;27;101709;-62
2022/08/14 08:45:21;;;;;;;2.47;2.30;;;;;;;25.92;67.98;95756.38;5069831;27;103842;-62
2022/08/14 08:47:49;;;;;;;2.50;2.30;;;;;;;25.94;66.29;95759.53;5068953;27;103955;-62
2022/08/14 08:50:19;;;;;;;2.50;2.17;;;;;;;26.30;70.99;95767.13;5071056;27;101870;-62
2022/08/14 08:52:50;;;;;;;2.80;2.10;;;;;;;26.38;65.67;95758.72;5071014;27;103394;-62
2022/08/14 08:55:25;;;;;;;2.27;2.07;;;;;;;26.42;73.90;95764.25;5068932;27;105598;-62
2022/08/14 08:57:58;;;;;;;2.13;2.00;;;;;;;26.34;68.92;95757.09;5074414;27;101879;-62
2022/08/14 09:00:32;;;;;;;2.40;2.30;;;;;;;26.50;67.04;95760.47;5070136;27;103070;-62
2022/08/14 09:03:03;;;;;;;2.80;2.33;;;;;;;26.63;69.17;95757.19;5069288;27;101871;-62
2022/08/14 09:05:32;;;;;;;2.30;2.10;;;;;;;26.79;72.53;95752.34;5071171;27;102482;-62
2022/08/14 09:08:13;;;;;;;2.57;2.37;;;;;;;26.92;72.71;95747.47;5070336;27;101680;-62
2022/08/14 09:10:41;;;;;;;2.40;2.20;;;;;;;27.26;69.34;95738.97;5070453;27;101764;-62
2022/08/14 09:13:10;;;;;;;2.30;2.20;;;;;;;27.51;64.65;95742.00;5070843;27;102749;-62
2022/08/14 09:15:40;;;;;;;2.23;2.13;;;;;;;27.27;60.57;95734.28;5068736;27;103878;-62
2022/08/14 09:18:09;;;;;;;2.43;1.77;;;;;;;27.37;61.32;95734.44;5069326;27;102131;-62
2022/08/14 09:20:38;;;;;;;2.27;2.00;;;;;;;27.36;57.76;95730.09;5071785;27;104793;-62
2022/08/14 09:23:07;;;;;;;2.50;2.03;;;;;;;27.00;53.62;95727.28;5070584;27;101799;-62
2022/08/14 09:25:35;;;;;;;2.53;2.17;;;;;;;27.54;53.90;95722.91;5070458;27;102325;-62
2022/08/14 09:28:02;;;;;;;2.57;2.33;;;;;;;27.51;48.41;95723.66;5068536;27;104570;-62
2022/08/14 09:30:31;;;;;;;2.97;1.90;;;;;;;27.93;49.39;95717.84;5070471;27;101794;-62
2022/08/14 09:33:20;;;;;;;2.20;2.00;;;;;;;28.22;44.57;95719.69;5070492;27;102278;-62
2022/08/14 09:36:00;;;;;;;2.50;2.23;;;;;;;28.51;44.39;95713.28;5070006;27;103111;-62
2022/08/14 09:38:36;;;;;;;1.90;1.80;;;;;;;28.68;43.98;95707.13;5070823;27;101865;-62
2022/08/14 09:41:13;;;;;;;1.80;1.70;;;;;;;28.91;43.70;95707.66;5070111;27;102606;-62
2022/08/14 09:43:48;;;;;;;2.00;1.90;;;;;;;29.07;41.84;95711.69;5071995;27;104153;-62
2022/08/14 09:46:16;;;;;;;2.27;2.07;;;;;;;29.17;41.23;95707.41;5070362;27;102855;-62
2022/08/14 09:48:45;;;;;;;2.00;1.90;;;;;;;29.26;40.53;95707.84;5069728;27;103131;-62
2022/08/14 09:51:24;;;;;;;2.08;1.98;;;;;;;29.27;39.11;95703.94;5069898;27;101811;-62
2022/08/14 09:54:05;;;;;;;1.83;1.73;;;;;;;29.10;40.18;95705.44;5070462;27;102419;-62
2022/08/14 09:56:45;;;;;;;1.83;1.70;;;;;;;29.41;38.59;95695.75;5068138;27;106582;-62
2022/08/14 09:59:15;;;;;;;2.10;2.00;;;;;;;29.74;37.77;95695.50;5070430;27;102371;-62
2022/08/14 10:01:43;;;;;;;2.17;2.08;;;;;;;29.66;37.21;95688.41;5070245;27;102821;-62
2022/08/14 10:04:20;;;;;;;2.05;1.90;;;;;;;29.97;37.20;95688.44;5069576;27;102744;-62
2022/08/14 10:06:47;;;;;;;2.75;1.80;;;;;;;29.69;36.98;95688.41;5073729;27;101905;-62
2022/08/14 10:09:14;;;;;;;3.03;2.00;;;;;;;29.77;36.63;95691.97;5069403;27;102571;-62
2022/08/14 10:11:52;;;;;;;2.10;2.00;;;;;;;29.90;35.34;95693.13;5070157;27;102106;-62
2022/08/14 10:14:23;;;;;;;2.30;2.20;;;;;;;29.99;35.59;95691.59;5073819;27;102760;-62
2022/08/14 10:16:53;;;;;;;2.33;2.03;;;;;;;30.20;36.01;95683.41;5071240;27;106283;-62
2022/08/14 10:19:24;;;;;;;2.10;2.00;;;;;;;30.17;35.88;95686.13;5073380;27;101793;-62
2022/08/14 10:22:01;;;;;;;2.60;1.88;;;;;;;30.13;35.91;95677.91;5071955;27;105119;-62
2022/08/14 10:24:33;;;;;;;2.53;2.33;;;;;;;30.40;34.53;95683.78;5072958;27;102720;-62
2022/08/14 10:27:02;;;;;;;2.15;2.05;;;;;;;30.48;34.81;95675.16;5073458;27;101760;-62
2022/08/14 10:29:34;;;;;;;2.20;2.05;;;;;;;30.57;35.71;95677.50;5074596;27;105389;-62
2022/08/14 10:32:01;;;;;;;1.95;1.85;;;;;;;30.86;34.09;95684.50;5071784;27;101939;-62
2022/08/14 10:34:35;;;;;;;2.17;2.03;;;;;;;31.04;32.58;95682.47;5071914;27;103846;-62
2022/08/14 10:37:06;;;;;;;2.15;1.95;;;;;;;31.20;32.37;95680.88;5072677;27;102887;-62
2022/08/14 10:39:35;;;;;;;2.10;1.90;;;;;;;31.34;32.51;95677.28;5072608;27;101831;-63
2022/08/14 10:42:05;;;;;;;2.95;1.83;;;;;;;31.28;32.85;95678.88;5073175;27;102290;-62
2022/08/14 10:44:35;;;;;;;2.25;2.10;;;;;;;31.12;32.76;95678.53;5072280;27;102730;-62
2022/08/14 10:47:04;;;;;;;1.90;1.80;;;;;;;31.07;31.83;95678.94;5073200;27;101684;-62
2022/08/14 10:49:34;;;;;;;2.00;1.90;;;;;;;31.54;30.60;95673.63;5073002;27;101705;-63
2022/08/14 10:52:04;;;;;;;1.80;1.70;;;;;;;31.60;31.24;95668.50;5075414;27;101843;-62
2022/08/14 10:54:38;;;;;;;2.33;2.05;;;;;;;31.40;31.18;95660.00;5072835;27;102279;-62
2022/08/14 10:57:19;;;;;;;2.10;2.00;;;;;;;32.01;29.90;95663.91;5072143;27;102849;-62
2022/08/14 10:59:50;;;;;;;1.77;1.67;;;;;;;32.34;29.35;95661.31;5073057;27;101865;-62
2022/08/14 11:02:19;;;;;;;2.40;1.73;;;;;;;31.36;29.87;95653.72;5073095;27;102337;-62
2022/08/14 11:04:58;;;;;;;1.70;1.70;;;;;;;31.93;30.31;95654.16;5072083;27;102656;-62
2022/08/14 11:07:24;;;;;;;2.83;1.90;;;;;;;31.91;30.88;95648.28;5072796;27;101786;-62
2022/08/14 11:09:56;;;;;;;1.67;1.58;;;;;;;31.98;29.67;95645.50;5072782;27;102853;-62
2022/08/14 11:12:25;;;;;;;1.75;1.65;;;;;;;31.92;30.87;95636.88;5073866;27;106497;-62
2022/08/14 11:14:55;;;;;;;1.80;1.70;;;;;;;32.14;30.74;95632.00;5071252;27;104358;-62
2022/08/14 11:17:24;;;;;;;1.60;1.50;;;;;;;32.31;31.23;95634.59;5072298;27;103667;-62
2022/08/14 11:19:59;;;;;;;1.85;1.60;;;;;;;32.58;30.95;95623.72;5070851;27;101976;-62
2022/08/14 11:22:28;;;;;;;1.83;1.73;;;;;;;32.79;30.76;95620.78;5072387;27;102495;-62
2022/08/14 11:24:57;;;;;;;1.60;1.50;;;;;;;33.07;29.84;95625.94;5069591;27;103864;-62
2022/08/14 11:27:26;;;;;;;2.15;1.58;;;;;;;32.75;30.31;95620.75;5070935;27;101855;-62
2022/08/14 11:29:55;;;;;;;1.73;1.60;;;;;;;32.86;29.23;95612.41;5072477;27;102546;-62
2022/08/14 11:32:24;;;;;;;1.83;1.73;;;;;;;32.92;30.62;95608.00;5071676;27;102519;-62
2022/08/14 11:34:53;;;;;;;1.73;1.63;;;;;;;32.44;31.17;95605.38;5075528;27;101903;-62
2022/08/14 11:37:21;;;;;;;2.33;2.05;;;;;;;32.47;30.60;95601.03;5070200;27;103887;-62
2022/08/14 11:39:48;;;;;;;1.90;1.80;;;;;;;32.73;30.90;95603.09;5071693;27;102024;-62
2022/08/14 11:42:22;;;;;;;1.90;1.70;;;;;;;33.07;28.39;95601.13;5072309;27;102274;-62